createdAt,value
2019-05-13T00:00:44.661Z,3.03
2019-05-13T00:03:13.600Z,2.80
2019-05-13T00:05:44.242Z,2.80
2019-05-13T00:08:13.762Z,2.83
2019-05-13T00:10:43.524Z,2.57
2019-05-13T00:13:11.221Z,3.40
2019-05-13T00:15:39.377Z,1.93
2019-05-13T00:18:07.399Z,3.23
2019-05-13T00:20:35.472Z,2.27
2019-05-13T00:23:04.167Z,2.63
2019-05-13T00:25:33.943Z,3.37
2019-05-13T00:28:04.016Z,3.27
2019-05-13T00:30:33.671Z,2.80
2019-05-13T00:33:03.469Z,2.90
2019-05-13T00:35:33.582Z,2.03
2019-05-13T00:38:00.922Z,2.57
2019-05-13T00:40:28.996Z,2.90
2019-05-13T00:42:57.087Z,2.53
2019-05-13T00:45:25.126Z,2.93
2019-05-13T00:47:53.825Z,3.07
2019-05-13T00:50:23.978Z,2.50
2019-05-13T00:52:53.678Z,2.50
2019-05-13T00:55:23.663Z,2.60
2019-05-13T00:57:53.965Z,2.83
2019-05-13T01:00:21.175Z,3.27
2019-05-13T01:02:49.229Z,2.30
2019-05-13T01:05:17.267Z,2.77
2019-05-13T01:07:45.275Z,3.20
2019-05-13T01:10:13.530Z,3.13
2019-05-13T01:12:43.809Z,2.83
2019-05-13T01:15:13.551Z,2.23
2019-05-13T01:17:44.487Z,2.50
2019-05-13T01:20:14.170Z,2.90
2019-05-13T01:22:43.823Z,2.30
2019-05-13T01:25:11.319Z,2.80
2019-05-13T01:27:39.410Z,2.53
2019-05-13T01:30:07.648Z,2.20
2019-05-13T01:32:35.719Z,2.73
2019-05-13T01:35:04.659Z,2.60
2019-05-13T01:37:42.204Z,2.60
2019-05-13T01:40:04.933Z,2.50
2019-05-13T01:42:33.660Z,2.63
2019-05-13T01:45:04.490Z,2.63
2019-05-13T01:47:34.901Z,2.57
2019-05-13T01:50:04.063Z,2.70
2019-05-13T01:52:34.349Z,3.13
2019-05-13T01:55:04.002Z,2.70
2019-05-13T01:57:34.137Z,3.10
2019-05-13T02:00:04.823Z,2.50
2019-05-13T02:02:33.658Z,3.00
2019-05-13T02:05:03.921Z,3.07
2019-05-13T02:07:33.574Z,3.13
2019-05-13T02:10:04.270Z,3.37
2019-05-13T02:12:34.009Z,2.50
2019-05-13T02:15:04.236Z,2.83
2019-05-13T02:17:33.625Z,2.80
2019-05-13T02:20:03.704Z,3.23
2019-05-13T02:22:33.560Z,2.20
2019-05-13T02:25:01.376Z,2.90
2019-05-13T02:27:29.376Z,3.77
2019-05-13T02:29:57.434Z,2.77
2019-05-13T02:32:25.456Z,2.23
2019-05-13T02:34:53.539Z,2.50
2019-05-13T02:37:23.177Z,2.40
2019-05-13T02:39:53.170Z,2.60
2019-05-13T02:42:22.888Z,2.37
2019-05-13T02:44:52.976Z,2.53
2019-05-13T02:47:22.605Z,2.40
2019-05-13T02:49:53.058Z,2.20
2019-05-13T02:55:43.638Z,2.50
2019-05-13T02:58:12.418Z,2.37
2019-05-13T03:00:43.978Z,2.70
2019-05-13T03:03:12.835Z,2.60
2019-05-13T03:05:42.922Z,2.17
2019-05-13T03:08:12.809Z,2.63
2019-05-13T03:10:43.130Z,3.40
2019-05-13T03:13:12.543Z,2.73
2019-05-13T03:15:52.229Z,2.53
2019-05-13T03:18:22.307Z,2.47
2019-05-13T03:20:52.659Z,2.67
2019-05-13T03:23:18.762Z,2.83
2019-05-13T03:25:46.847Z,2.87
2019-05-13T03:28:14.855Z,2.20
2019-05-13T03:30:45.689Z,2.57
2019-05-13T03:33:18.597Z,2.70
2019-05-13T03:35:45.361Z,3.37
2019-05-13T03:38:12.770Z,2.70
2019-05-13T03:40:42.686Z,3.13
2019-05-13T03:43:12.895Z,2.80
2019-05-13T03:45:43.456Z,2.87
2019-05-13T03:48:12.360Z,2.77
2019-05-13T03:50:43.181Z,2.10
2019-05-13T03:53:12.150Z,3.43
2019-05-13T03:55:43.171Z,2.50
2019-05-13T03:58:12.807Z,2.83
2019-05-13T04:00:39.184Z,2.97
2019-05-13T04:03:07.219Z,3.10
2019-05-13T04:05:35.360Z,2.83
2019-05-13T04:08:03.656Z,2.53
2019-05-13T04:10:33.404Z,2.70
2019-05-13T04:13:03.779Z,2.73
2019-05-13T04:15:31.967Z,2.40
2019-05-13T04:18:02.644Z,2.93
2019-05-13T04:20:32.996Z,2.87
2019-05-13T04:23:02.698Z,2.83
2019-05-13T04:25:32.070Z,2.67
2019-05-13T04:27:59.038Z,2.67
2019-05-13T04:30:27.125Z,2.77
2019-05-13T04:32:55.137Z,2.17
2019-05-13T04:35:23.877Z,3.03
2019-05-13T04:37:52.850Z,2.00
2019-05-13T04:40:23.287Z,2.50
2019-05-13T04:42:53.582Z,2.10
2019-05-13T04:45:23.761Z,2.50
2019-05-13T04:47:52.842Z,2.37
2019-05-13T04:53:42.545Z,2.90
2019-05-13T04:56:13.640Z,2.50
2019-05-13T04:58:52.794Z,2.50
2019-05-13T05:01:59.094Z,2.77
2019-05-13T05:04:30.530Z,2.90
2019-05-13T05:07:03.237Z,2.47
2019-05-13T05:10:13.108Z,2.63
2019-05-13T05:12:44.197Z,2.27
2019-05-13T05:15:15.538Z,2.50
2019-05-13T05:18:11.523Z,3.07
2019-05-13T05:20:53.025Z,2.80
2019-05-13T05:23:37.040Z,2.83
2019-05-13T05:26:16.901Z,3.20
2019-05-13T05:29:22.356Z,2.67
2019-05-13T05:32:13.091Z,2.77
2019-05-13T05:34:58.542Z,2.73
2019-05-13T05:40:37.663Z,3.03
2019-05-13T05:43:06.164Z,3.00
2019-05-13T05:45:36.039Z,2.50
2019-05-13T05:48:06.109Z,2.90
2019-05-13T05:50:35.534Z,2.30
2019-05-13T05:53:04.897Z,3.00
2019-05-13T05:55:34.371Z,2.40
2019-05-13T05:58:03.023Z,3.03
2019-05-13T06:00:32.418Z,2.87
2019-05-13T06:03:02.504Z,2.67
2019-05-13T06:05:31.881Z,2.33
2019-05-13T06:08:01.988Z,2.30
2019-05-13T06:10:44.154Z,2.50
2019-05-13T06:13:01.833Z,2.63
2019-05-13T06:15:31.486Z,3.20
2019-05-13T06:18:02.147Z,2.17
2019-05-13T06:20:31.517Z,2.17
2019-05-13T06:22:59.103Z,4.93
2019-05-13T06:25:27.173Z,3.20
2019-05-13T06:27:55.194Z,2.87
2019-05-13T06:30:23.201Z,2.80
2019-05-13T06:32:52.519Z,2.67
2019-05-13T06:35:21.865Z,2.83
2019-05-13T06:37:52.298Z,2.70
2019-05-13T06:40:21.401Z,2.93
2019-05-13T06:42:51.969Z,2.53
2019-05-13T06:45:21.659Z,2.83
2019-05-13T06:47:49.154Z,3.00
2019-05-13T06:50:18.808Z,2.50
2019-05-13T06:52:46.872Z,2.40
2019-05-13T06:55:14.876Z,2.43
2019-05-13T06:57:42.928Z,2.70
2019-05-13T07:00:12.171Z,2.40
2019-05-13T07:02:42.694Z,2.40
2019-05-13T07:05:11.963Z,2.83
2019-05-13T07:07:42.397Z,2.40
2019-05-13T07:10:12.518Z,2.80
2019-05-13T07:12:41.192Z,2.20
2019-05-13T07:15:11.561Z,2.20
2019-05-13T07:17:41.489Z,2.57
2019-05-13T07:20:11.374Z,2.20
2019-05-13T07:22:38.647Z,2.13
2019-05-13T07:25:07.300Z,2.30
2019-05-13T07:27:35.320Z,2.47
2019-05-13T07:30:03.584Z,2.50
2019-05-13T07:32:31.701Z,1.73
2019-05-13T07:35:03.418Z,3.10
2019-05-13T07:37:31.781Z,2.27
2019-05-13T07:40:02.357Z,2.27
2019-05-13T07:42:31.246Z,2.93
2019-05-13T07:45:01.517Z,2.33
2019-05-13T07:47:31.249Z,2.00
2019-05-13T07:49:58.761Z,1.93
2019-05-13T07:52:26.786Z,1.93
2019-05-13T07:54:54.814Z,2.13
2019-05-13T07:57:22.870Z,1.90
2019-05-13T07:59:52.406Z,2.03
2019-05-13T08:02:21.668Z,1.90
2019-05-13T08:04:52.834Z,1.80
2019-05-13T08:07:22.324Z,2.17
2019-05-13T08:09:51.814Z,1.90
2019-05-13T08:12:21.455Z,1.70
2019-05-13T08:14:48.834Z,1.53
2019-05-13T08:17:16.889Z,2.10
2019-05-13T08:19:44.916Z,1.77
2019-05-13T08:22:13.080Z,1.57
2019-05-13T08:24:42.451Z,1.83
2019-05-13T08:27:11.828Z,1.60
2019-05-13T08:29:42.180Z,1.40
2019-05-13T08:32:11.291Z,1.10
2019-05-13T08:34:41.533Z,1.10
2019-05-13T08:37:11.237Z,1.20
2019-05-13T08:39:41.269Z,1.33
2019-05-13T08:42:16.882Z,1.23
2019-05-13T08:44:41.484Z,0.93
2019-05-13T08:47:08.647Z,1.13
2019-05-13T08:49:36.695Z,1.00
2019-05-13T08:52:05.022Z,1.40
2019-05-13T08:55:06.179Z,1.13
2019-05-13T08:57:34.291Z,1.03
2019-05-13T09:00:05.292Z,1.27
2019-05-13T09:02:32.121Z,1.40
2019-05-13T09:05:02.403Z,1.00
2019-05-13T09:07:31.869Z,1.13
2019-05-13T09:10:01.912Z,1.30
2019-05-13T09:12:33.283Z,1.60
2019-05-13T09:14:58.956Z,1.27
2019-05-13T09:17:26.991Z,1.57
2019-05-13T09:19:55.001Z,1.03
2019-05-13T09:22:23.021Z,1.50
2019-05-13T09:24:53.058Z,1.20
2019-05-13T12:28:18.005Z,1.43
2019-05-13T12:30:46.623Z,1.33
2019-05-13T12:33:14.744Z,1.43
2019-05-13T12:35:43.058Z,1.53
2019-05-13T12:38:13.438Z,1.57
2019-05-13T12:40:42.882Z,0.87
2019-05-13T12:43:13.381Z,1.67
2019-05-13T12:45:43.107Z,1.30
2019-05-13T12:48:14.105Z,1.83
2019-05-13T12:50:43.212Z,1.97
2019-05-13T12:53:17.036Z,1.80
2019-05-13T12:55:52.257Z,1.27
2019-05-13T13:48:40.094Z,1.60
2019-05-13T13:51:13.680Z,1.27
2019-05-13T13:53:43.954Z,1.60
2019-05-13T13:56:14.618Z,1.30
2019-05-13T13:58:43.851Z,1.37
2019-05-13T14:01:17.737Z,1.57
2019-05-13T14:03:45.643Z,1.50
2019-05-13T14:06:12.547Z,1.40
2019-05-13T14:08:41.534Z,1.27
2019-05-13T14:11:11.674Z,1.57
2019-05-13T14:13:42.326Z,1.50
2019-05-13T14:16:25.051Z,1.00
2019-05-13T14:18:41.954Z,1.37
2019-05-13T15:33:34.879Z,1.30
2019-05-13T15:36:03.133Z,1.10
2019-05-13T15:38:32.081Z,1.23
2019-05-13T15:41:02.420Z,1.57
2019-05-13T15:43:31.837Z,2.47
2019-05-13T15:46:01.735Z,2.87
2019-05-13T15:48:31.553Z,1.93
2019-05-13T15:54:22.213Z,1.07
2019-05-13T15:56:50.683Z,1.70
2019-05-13T15:59:21.441Z,1.60
2019-05-13T16:01:49.054Z,1.30
2019-05-13T16:04:17.187Z,1.30
2019-05-13T16:06:54.372Z,1.27
2019-05-13T16:09:22.656Z,1.60
2019-05-13T16:11:52.204Z,2.30
2019-05-13T16:14:21.980Z,1.90
2019-05-13T16:16:50.485Z,5.13
2019-05-13T16:19:18.751Z,2.23
2019-05-13T16:21:47.134Z,2.83
2019-05-13T16:24:15.197Z,1.53
2019-05-13T16:26:43.307Z,1.67
2019-05-13T16:29:12.439Z,2.00
2019-05-13T16:31:41.709Z,1.50
2019-05-13T16:34:11.159Z,1.30
2019-05-13T16:36:42.923Z,1.80
2019-05-13T16:39:12.301Z,1.87
2019-05-13T16:41:42.665Z,1.90
2019-05-13T16:44:11.922Z,3.63
2019-05-13T16:46:42.520Z,1.60
2019-05-13T16:49:12.090Z,2.80
2019-05-13T16:51:42.656Z,2.57
2019-05-13T16:54:10.216Z,1.93
2019-05-13T16:56:38.442Z,1.33
2019-05-13T16:59:06.723Z,1.80
2019-05-13T17:01:35.646Z,2.10
2019-05-13T17:04:04.343Z,3.10
2019-05-13T17:06:32.796Z,1.50
2019-05-13T17:09:02.056Z,2.00
2019-05-13T17:11:32.121Z,1.20
2019-05-13T17:14:02.319Z,1.77
2019-05-13T17:16:31.735Z,1.93
2019-05-13T17:19:01.421Z,2.17
2019-05-13T17:21:31.657Z,1.80
2019-05-13T17:24:01.569Z,1.27
2019-05-13T17:26:32.497Z,1.70
2019-05-13T17:32:11.615Z,3.00
2019-05-13T17:34:43.447Z,2.27
2019-05-13T17:37:11.744Z,2.57
2019-05-13T17:39:41.485Z,2.27
2019-05-13T17:42:09.438Z,2.03
2019-05-13T17:44:37.633Z,1.53
2019-05-13T17:47:05.807Z,3.23
2019-05-13T17:52:43.771Z,1.83
2019-05-13T17:55:12.923Z,1.80
2019-05-13T17:57:43.325Z,1.77
2019-05-13T18:00:13.616Z,1.80
2019-05-13T18:02:45.953Z,1.80
2019-05-13T18:05:24.097Z,2.00
2019-05-13T18:07:55.254Z,1.60
2019-05-13T18:10:23.431Z,1.77
2019-05-13T18:12:57.017Z,2.40
2019-05-13T18:15:25.873Z,2.57
2019-05-13T18:18:05.922Z,3.03
2019-05-13T18:20:36.477Z,2.87
2019-05-13T18:23:04.445Z,2.53
2019-05-13T19:48:55.135Z,2.00
2019-05-13T19:51:23.587Z,2.73
2019-05-13T19:53:52.066Z,1.80
2019-05-13T19:56:23.484Z,1.90
2019-05-13T19:59:28.765Z,1.90
2019-05-13T20:02:03.964Z,1.73
2019-05-13T20:04:33.281Z,3.17
2019-05-13T20:07:01.695Z,1.97
2019-05-13T20:09:32.206Z,1.93
2019-05-13T20:14:53.926Z,1.90
2019-05-13T20:17:22.128Z,2.20
2019-05-13T20:20:22.365Z,2.07
2019-05-13T20:23:12.397Z,1.70
2019-05-13T20:25:52.261Z,1.33
2019-05-13T20:28:34.801Z,1.90
2019-05-13T20:31:28.754Z,1.87
2019-05-13T20:33:58.536Z,1.33
2019-05-13T20:36:31.632Z,1.67
2019-05-13T20:39:02.231Z,1.73
2019-05-13T20:41:31.687Z,1.63
2019-05-13T20:44:01.441Z,2.00
2019-05-13T20:46:32.535Z,1.63
2019-05-13T20:48:59.649Z,1.33
2019-05-13T20:51:27.806Z,1.90
2019-05-13T20:53:56.083Z,2.30
2019-05-13T20:56:24.369Z,1.60
2019-05-13T20:58:52.508Z,1.57
2019-05-13T21:01:21.172Z,1.27
2019-05-13T21:03:51.518Z,1.60
2019-05-13T21:06:19.587Z,1.70
2019-05-13T21:08:48.065Z,1.43
2019-05-13T21:11:16.374Z,1.70
2019-05-13T21:13:45.069Z,1.50
2019-05-13T21:16:14.607Z,1.73
2019-05-13T21:18:42.588Z,2.10
2019-05-13T21:21:11.628Z,1.77
2019-05-13T21:23:41.754Z,1.43
2019-05-13T21:26:13.088Z,1.50
2019-05-13T21:28:41.897Z,1.70
2019-05-13T21:31:11.313Z,1.70
2019-05-13T21:33:39.560Z,1.40
2019-05-13T21:36:07.633Z,1.47
2019-05-13T21:38:35.726Z,1.63
2019-05-13T21:41:03.814Z,1.70
2019-05-13T21:43:32.370Z,2.23
2019-05-13T21:46:01.957Z,1.60
2019-05-13T21:48:32.487Z,2.03
2019-05-13T21:51:00.176Z,2.30
2019-05-13T21:53:28.327Z,1.53
2019-05-13T21:55:56.790Z,1.50
2019-05-13T21:58:24.869Z,1.80
2019-05-13T22:00:53.696Z,1.70
2019-05-13T22:03:21.876Z,1.90
2019-05-13T22:05:51.554Z,1.60
2019-05-13T22:08:21.623Z,1.83
2019-05-13T22:10:52.226Z,1.53
2019-05-13T22:13:19.635Z,1.60
2019-05-13T22:15:48.860Z,2.00
2019-05-13T22:18:17.117Z,1.80
2019-05-13T22:20:50.437Z,1.70
2019-05-13T22:23:14.820Z,1.57
2019-05-13T22:25:43.718Z,2.10
2019-05-13T22:28:12.200Z,1.57
2019-05-13T22:30:41.196Z,1.37
2019-05-13T22:33:09.615Z,1.70
2019-05-13T22:35:37.813Z,2.30
2019-05-13T22:38:05.977Z,1.70
2019-05-13T22:40:33.969Z,2.00
2019-05-13T22:43:02.039Z,2.07
2019-05-13T22:45:31.277Z,1.90
2019-05-13T22:47:59.456Z,1.77
2019-05-13T22:50:27.482Z,1.57
2019-05-13T22:52:55.479Z,1.53
2019-05-13T22:55:23.471Z,1.60
2019-05-13T22:57:51.554Z,2.07
2019-05-13T23:00:22.157Z,1.87
2019-05-13T23:02:52.884Z,1.70
2019-05-13T23:05:21.742Z,1.90
2019-05-13T23:07:51.447Z,1.57
2019-05-13T23:10:22.344Z,1.60
2019-05-13T23:12:51.518Z,2.00
2019-05-13T23:15:21.285Z,1.43
2019-05-13T23:17:51.886Z,1.80
2019-05-13T23:20:21.292Z,1.80
2019-05-13T23:22:51.883Z,1.60
2019-05-13T23:25:21.303Z,1.97
2019-05-13T23:27:48.541Z,1.40
2019-05-13T23:30:16.577Z,2.07
2019-05-13T23:32:44.610Z,2.00
2019-05-13T23:35:12.673Z,1.70
2019-05-13T23:37:41.687Z,2.00
2019-05-13T23:40:11.824Z,1.90
2019-05-13T23:42:40.160Z,1.77
2019-05-13T23:45:11.545Z,1.70
2019-05-13T23:47:41.563Z,2.00
2019-05-13T23:50:09.582Z,1.90
2019-05-13T23:52:41.697Z,1.93
2019-05-13T23:55:11.050Z,2.03
2019-05-13T23:57:41.664Z,1.90
